sensor_id;sensor_type;location;lat;lon;timestamp;temperature;humidity
5520;DHT22;2782;52.362;10.012;2023-05-10T00:00:57;18.50;74.20
5520;DHT22;2782;52.362;10.012;2023-05-10T00:01:57;18.50;74.30
5520;DHT22;2782;52.362;10.012;2023-05-10T00:02:59;18.50;74.30
5520;DHT22;2782;52.362;10.012;2023-05-10T00:03:59;18.50;74.30
5520;DHT22;2782;52.362;10.012;2023-05-10T00:05:01;18.50;74.30
5520;DHT22;2782;52.362;10.012;2023-05-10T00:06:02;18.50;74.30
5520;DHT22;2782;52.362;10.012;2023-05-10T00:07:05;18.50;74.40
5520;DHT22;2782;52.362;10.012;2023-05-10T00:08:05;18.50;74.30
5520;DHT22;2782;52.362;10.012;2023-05-10T00:09:07;18.50;74.40
5520;DHT22;2782;52.362;10.012;2023-05-10T00:10:08;18.50;74.30
5520;DHT22;2782;52.362;10.012;2023-05-10T00:11:10;18.50;74.30
5520;DHT22;2782;52.362;10.012;2023-05-10T00:12:10;18.50;74.40
5520;DHT22;2782;52.362;10.012;2023-05-10T00:13:12;18.50;74.40
5520;DHT22;2782;52.362;10.012;2023-05-10T00:14:13;18.50;74.60
5520;DHT22;2782;52.362;10.012;2023-05-10T00:15:15;18.50;74.40
5520;DHT22;2782;52.362;10.012;2023-05-10T00:16:15;18.50;74.50
5520;DHT22;2782;52.362;10.012;2023-05-10T00:17:17;18.50;74.40
5520;DHT22;2782;52.362;10.012;2023-05-10T00:18:18;18.50;74.30
5520;DHT22;2782;52.362;10.012;2023-05-10T00:19:19;18.50;74.40
5520;DHT22;2782;52.362;10.012;2023-05-10T00:20:20;18.50;74.50
5520;DHT22;2782;52.362;10.012;2023-05-10T00:21:21;18.50;74.60
5520;DHT22;2782;52.362;10.012;2023-05-10T00:22:23;18.50;74.50
5520;DHT22;2782;52.362;10.012;2023-05-10T00:23:25;18.50;74.50
5520;DHT22;2782;52.362;10.012;2023-05-10T00:24:26;18.50;74.70
5520;DHT22;2782;52.362;10.012;2023-05-10T00:25:27;18.50;74.60
5520;DHT22;2782;52.362;10.012;2023-05-10T00:26:28;18.50;74.60
5520;DHT22;2782;52.362;10.012;2023-05-10T00:27:30;18.50;74.60
5520;DHT22;2782;52.362;10.012;2023-05-10T00:28:30;18.50;74.80
5520;DHT22;2782;52.362;10.012;2023-05-10T00:29:32;18.50;74.70
5520;DHT22;2782;52.362;10.012;2023-05-10T00:30:34;18.50;74.80
5520;DHT22;2782;52.362;10.012;2023-05-10T00:31:35;18.50;74.80
5520;DHT22;2782;52.362;10.012;2023-05-10T00:32:36;18.50;74.80
5520;DHT22;2782;52.362;10.012;2023-05-10T00:33:37;18.50;74.80
5520;DHT22;2782;52.362;10.012;2023-05-10T00:34:38;18.50;74.80
5520;DHT22;2782;52.362;10.012;2023-05-10T00:35:40;18.50;74.80
5520;DHT22;2782;52.362;10.012;2023-05-10T00:36:40;18.50;75.00
5520;DHT22;2782;52.362;10.012;2023-05-10T00:37:43;18.50;75.00
5520;DHT22;2782;52.362;10.012;2023-05-10T00:38:44;18.50;75.00
5520;DHT22;2782;52.362;10.012;2023-05-10T00:39:46;18.50;74.90
5520;DHT22;2782;52.362;10.012;2023-05-10T00:40:46;18.50;75.10
5520;DHT22;2782;52.362;10.012;2023-05-10T00:41:48;18.50;75.10
5520;DHT22;2782;52.362;10.012;2023-05-10T00:42:49;18.50;75.10
5520;DHT22;2782;52.362;10.012;2023-05-10T00:43:50;18.50;75.10
5520;DHT22;2782;52.362;10.012;2023-05-10T00:44:51;18.50;75.10
5520;DHT22;2782;52.362;10.012;2023-05-10T00:45:53;18.50;75.10
5520;DHT22;2782;52.362;10.012;2023-05-10T00:46:54;18.50;75.10
5520;DHT22;2782;52.362;10.012;2023-05-10T00:47:55;18.50;75.10
5520;DHT22;2782;52.362;10.012;2023-05-10T00:48:56;18.50;75.20
5520;DHT22;2782;52.362;10.012;2023-05-10T00:49:58;18.50;75.30
5520;DHT22;2782;52.362;10.012;2023-05-10T00:51:01;18.50;75.40
5520;DHT22;2782;52.362;10.012;2023-05-10T00:52:03;18.50;75.30
5520;DHT22;2782;52.362;10.012;2023-05-10T00:53:05;18.50;75.30
5520;DHT22;2782;52.362;10.012;2023-05-10T00:54:07;18.50;75.30
5520;DHT22;2782;52.362;10.012;2023-05-10T00:55:09;18.50;75.40
5520;DHT22;2782;52.362;10.012;2023-05-10T00:56:11;18.50;75.40
5520;DHT22;2782;52.362;10.012;2023-05-10T00:57:12;18.50;75.40
5520;DHT22;2782;52.362;10.012;2023-05-10T00:58:14;18.50;75.40
5520;DHT22;2782;52.362;10.012;2023-05-10T00:59:15;18.50;75.40
5520;DHT22;2782;52.362;10.012;2023-05-10T01:00:18;18.50;75.40
5520;DHT22;2782;52.362;10.012;2023-05-10T01:01:19;18.50;75.50
5520;DHT22;2782;52.362;10.012;2023-05-10T01:02:20;18.40;75.40
5520;DHT22;2782;52.362;10.012;2023-05-10T01:03:21;18.50;75.60
5520;DHT22;2782;52.362;10.012;2023-05-10T01:04:23;18.50;75.60
5520;DHT22;2782;52.362;10.012;2023-05-10T01:05:25;18.50;75.70
5520;DHT22;2782;52.362;10.012;2023-05-10T01:06:27;18.50;75.60
5520;DHT22;2782;52.362;10.012;2023-05-10T01:07:28;18.50;75.60
5520;DHT22;2782;52.362;10.012;2023-05-10T01:08:32;18.50;75.60
5520;DHT22;2782;52.362;10.012;2023-05-10T01:09:32;18.50;75.60
5520;DHT22;2782;52.362;10.012;2023-05-10T01:10:35;18.40;75.50
5520;DHT22;2782;52.362;10.012;2023-05-10T01:11:37;18.40;75.50
5520;DHT22;2782;52.362;10.012;2023-05-10T01:12:40;18.40;75.50
5520;DHT22;2782;52.362;10.012;2023-05-10T01:13:47;18.40;75.50
5520;DHT22;2782;52.362;10.012;2023-05-10T01:14:51;18.40;75.50
5520;DHT22;2782;52.362;10.012;2023-05-10T01:15:53;18.50;75.60
5520;DHT22;2782;52.362;10.012;2023-05-10T01:16:54;18.40;75.50
5520;DHT22;2782;52.362;10.012;2023-05-10T01:17:57;18.40;75.50
5520;DHT22;2782;52.362;10.012;2023-05-10T01:18:57;18.40;75.50
5520;DHT22;2782;52.362;10.012;2023-05-10T01:19:59;18.40;75.40
5520;DHT22;2782;52.362;10.012;2023-05-10T01:21:10;18.40;75.50
5520;DHT22;2782;52.362;10.012;2023-05-10T01:22:37;18.40;75.50
5520;DHT22;2782;52.362;10.012;2023-05-10T01:26:59;18.40;75.70
5520;DHT22;2782;52.362;10.012;2023-05-10T01:28:35;18.40;75.70
5520;DHT22;2782;52.362;10.012;2023-05-10T01:31:27;18.40;76.00
5520;DHT22;2782;52.362;10.012;2023-05-10T01:32:36;18.40;76.00
5520;DHT22;2782;52.362;10.012;2023-05-10T01:33:44;18.40;76.10
5520;DHT22;2782;52.362;10.012;2023-05-10T01:34:54;18.40;76.20
5520;DHT22;2782;52.362;10.012;2023-05-10T01:36:02;18.40;76.30
5520;DHT22;2782;52.362;10.012;2023-05-10T01:37:10;18.40;76.30
5520;DHT22;2782;52.362;10.012;2023-05-10T01:38:17;18.40;76.20
5520;DHT22;2782;52.362;10.012;2023-05-10T01:39:24;18.40;76.30
5520;DHT22;2782;52.362;10.012;2023-05-10T01:40:30;18.40;76.20
5520;DHT22;2782;52.362;10.012;2023-05-10T01:41:39;18.40;76.40
5520;DHT22;2782;52.362;10.012;2023-05-10T01:42:49;18.40;76.30
5520;DHT22;2782;52.362;10.012;2023-05-10T01:43:55;18.40;76.30
5520;DHT22;2782;52.362;10.012;2023-05-10T01:45:05;18.40;76.30
5520;DHT22;2782;52.362;10.012;2023-05-10T01:46:10;18.40;76.30
5520;DHT22;2782;52.362;10.012;2023-05-10T01:47:19;18.40;76.30
5520;DHT22;2782;52.362;10.012;2023-05-10T01:48:24;18.40;76.40
5520;DHT22;2782;52.362;10.012;2023-05-10T01:49:32;18.40;76.30
5520;DHT22;2782;52.362;10.012;2023-05-10T01:50:37;18.40;76.30
5520;DHT22;2782;52.362;10.012;2023-05-10T01:51:44;18.40;76.40
5520;DHT22;2782;52.362;10.012;2023-05-10T01:52:49;18.40;76.50
5520;DHT22;2782;52.362;10.012;2023-05-10T01:53:58;18.40;76.40
5520;DHT22;2782;52.362;10.012;2023-05-10T01:55:02;18.40;76.40
5520;DHT22;2782;52.362;10.012;2023-05-10T01:56:05;18.40;76.50
5520;DHT22;2782;52.362;10.012;2023-05-10T01:57:08;18.40;76.40
5520;DHT22;2782;52.362;10.012;2023-05-10T01:58:14;18.40;76.50
5520;DHT22;2782;52.362;10.012;2023-05-10T01:59:18;18.40;76.50
5520;DHT22;2782;52.362;10.012;2023-05-10T02:00:20;18.40;76.50
5520;DHT22;2782;52.362;10.012;2023-05-10T02:04:31;18.40;76.60
5520;DHT22;2782;52.362;10.012;2023-05-10T02:05:34;18.40;76.50
5520;DHT22;2782;52.362;10.012;2023-05-10T02:06:36;18.40;76.60
5520;DHT22;2782;52.362;10.012;2023-05-10T02:07:39;18.40;76.70
5520;DHT22;2782;52.362;10.012;2023-05-10T02:08:41;18.40;76.70
5520;DHT22;2782;52.362;10.012;2023-05-10T02:09:44;18.40;76.80
5520;DHT22;2782;52.362;10.012;2023-05-10T02:10:50;18.40;76.70
5520;DHT22;2782;52.362;10.012;2023-05-10T02:11:52;18.40;76.70
5520;DHT22;2782;52.362;10.012;2023-05-10T02:12:55;18.40;76.70
5520;DHT22;2782;52.362;10.012;2023-05-10T02:14:00;18.40;76.70
5520;DHT22;2782;52.362;10.012;2023-05-10T02:15:06;18.40;76.70
5520;DHT22;2782;52.362;10.012;2023-05-10T02:16:07;18.40;76.70
5520;DHT22;2782;52.362;10.012;2023-05-10T02:17:09;18.40;76.70
5520;DHT22;2782;52.362;10.012;2023-05-10T02:18:11;18.40;76.70
5520;DHT22;2782;52.362;10.012;2023-05-10T02:19:13;18.40;76.60
5520;DHT22;2782;52.362;10.012;2023-05-10T02:20:18;18.40;76.60
5520;DHT22;2782;52.362;10.012;2023-05-10T02:21:21;18.40;76.70
5520;DHT22;2782;52.362;10.012;2023-05-10T02:22:24;18.40;76.60
5520;DHT22;2782;52.362;10.012;2023-05-10T02:23:28;18.40;76.60
5520;DHT22;2782;52.362;10.012;2023-05-10T02:24:29;18.40;76.60
5520;DHT22;2782;52.362;10.012;2023-05-10T02:25:32;18.40;76.60
5520;DHT22;2782;52.362;10.012;2023-05-10T02:26:34;18.40;76.60
5520;DHT22;2782;52.362;10.012;2023-05-10T02:27:38;18.40;76.60
5520;DHT22;2782;52.362;10.012;2023-05-10T02:28:39;18.40;76.60
5520;DHT22;2782;52.362;10.012;2023-05-10T02:29:42;18.40;76.60
5520;DHT22;2782;52.362;10.012;2023-05-10T02:30:43;18.40;76.70
5520;DHT22;2782;52.362;10.012;2023-05-10T02:31:45;18.40;76.60
5520;DHT22;2782;52.362;10.012;2023-05-10T02:32:48;18.40;76.60
5520;DHT22;2782;52.362;10.012;2023-05-10T02:33:50;18.40;76.60
5520;DHT22;2782;52.362;10.012;2023-05-10T02:34:52;18.40;76.70
5520;DHT22;2782;52.362;10.012;2023-05-10T02:35:56;18.40;76.70
5520;DHT22;2782;52.362;10.012;2023-05-10T02:36:57;18.40;76.70
5520;DHT22;2782;52.362;10.012;2023-05-10T02:38:00;18.40;76.70
5520;DHT22;2782;52.362;10.012;2023-05-10T02:39:01;18.40;76.70
5520;DHT22;2782;52.362;10.012;2023-05-10T02:40:05;18.40;76.80
5520;DHT22;2782;52.362;10.012;2023-05-10T02:41:08;18.40;76.80
5520;DHT22;2782;52.362;10.012;2023-05-10T02:42:12;18.40;76.80
5520;DHT22;2782;52.362;10.012;2023-05-10T02:43:16;18.40;76.90
5520;DHT22;2782;52.362;10.012;2023-05-10T02:44:19;18.40;76.90
5520;DHT22;2782;52.362;10.012;2023-05-10T02:45:23;18.40;77.00
5520;DHT22;2782;52.362;10.012;2023-05-10T02:46:26;18.40;77.00
5520;DHT22;2782;52.362;10.012;2023-05-10T02:47:27;18.40;77.00
5520;DHT22;2782;52.362;10.012;2023-05-10T02:48:29;18.40;77.00
5520;DHT22;2782;52.362;10.012;2023-05-10T02:49:29;18.40;77.10
5520;DHT22;2782;52.362;10.012;2023-05-10T02:50:33;18.40;77.00
5520;DHT22;2782;52.362;10.012;2023-05-10T02:51:39;18.40;77.10
5520;DHT22;2782;52.362;10.012;2023-05-10T02:52:44;18.40;77.10
5520;DHT22;2782;52.362;10.012;2023-05-10T02:53:47;18.40;77.10
5520;DHT22;2782;52.362;10.012;2023-05-10T02:54:54;18.40;77.20
5520;DHT22;2782;52.362;10.012;2023-05-10T02:55:58;18.40;77.20
5520;DHT22;2782;52.362;10.012;2023-05-10T02:57:04;18.40;77.20
5520;DHT22;2782;52.362;10.012;2023-05-10T02:58:05;18.40;77.30
5520;DHT22;2782;52.362;10.012;2023-05-10T02:59:07;18.40;77.30
5520;DHT22;2782;52.362;10.012;2023-05-10T03:00:08;18.40;77.30
5520;DHT22;2782;52.362;10.012;2023-05-10T03:01:10;18.40;77.40
5520;DHT22;2782;52.362;10.012;2023-05-10T03:02:12;18.40;77.30
5520;DHT22;2782;52.362;10.012;2023-05-10T03:03:14;18.40;77.30
5520;DHT22;2782;52.362;10.012;2023-05-10T03:04:14;18.40;77.30
5520;DHT22;2782;52.362;10.012;2023-05-10T03:05:16;18.40;77.30
5520;DHT22;2782;52.362;10.012;2023-05-10T03:06:17;18.40;77.40
5520;DHT22;2782;52.362;10.012;2023-05-10T03:07:20;18.40;77.40
5520;DHT22;2782;52.362;10.012;2023-05-10T03:08:22;18.40;77.40
5520;DHT22;2782;52.362;10.012;2023-05-10T03:09:28;18.40;77.30
5520;DHT22;2782;52.362;10.012;2023-05-10T03:10:31;18.40;77.30
5520;DHT22;2782;52.362;10.012;2023-05-10T03:11:43;18.40;77.40
5520;DHT22;2782;52.362;10.012;2023-05-10T03:12:56;18.40;77.40
5520;DHT22;2782;52.362;10.012;2023-05-10T03:14:09;18.40;77.40
5520;DHT22;2782;52.362;10.012;2023-05-10T03:15:13;18.40;77.50
5520;DHT22;2782;52.362;10.012;2023-05-10T03:16:24;18.40;77.40
5520;DHT22;2782;52.362;10.012;2023-05-10T03:17:30;18.30;77.40
5520;DHT22;2782;52.362;10.012;2023-05-10T03:18:37;18.30;77.40
5520;DHT22;2782;52.362;10.012;2023-05-10T03:19:45;18.30;77.40
5520;DHT22;2782;52.362;10.012;2023-05-10T03:20:50;18.30;77.40
5520;DHT22;2782;52.362;10.012;2023-05-10T03:21:52;18.30;77.40
5520;DHT22;2782;52.362;10.012;2023-05-10T03:23:02;18.30;77.50
5520;DHT22;2782;52.362;10.012;2023-05-10T03:24:07;18.30;77.50
5520;DHT22;2782;52.362;10.012;2023-05-10T03:25:10;18.30;77.40
5520;DHT22;2782;52.362;10.012;2023-05-10T03:26:17;18.30;77.40
5520;DHT22;2782;52.362;10.012;2023-05-10T03:27:19;18.30;77.40
5520;DHT22;2782;52.362;10.012;2023-05-10T03:28:21;18.30;77.40
5520;DHT22;2782;52.362;10.012;2023-05-10T03:29:23;18.30;77.40
5520;DHT22;2782;52.362;10.012;2023-05-10T03:30:26;18.30;77.50
5520;DHT22;2782;52.362;10.012;2023-05-10T03:31:28;18.30;77.60
5520;DHT22;2782;52.362;10.012;2023-05-10T03:32:29;18.30;77.60
5520;DHT22;2782;52.362;10.012;2023-05-10T03:33:32;18.40;77.70
5520;DHT22;2782;52.362;10.012;2023-05-10T03:34:33;18.40;77.70
5520;DHT22;2782;52.362;10.012;2023-05-10T03:35:34;18.30;77.60
5520;DHT22;2782;52.362;10.012;2023-05-10T03:36:35;18.30;77.60
5520;DHT22;2782;52.362;10.012;2023-05-10T03:37:36;18.40;77.80
5520;DHT22;2782;52.362;10.012;2023-05-10T03:38:39;18.40;77.80
5520;DHT22;2782;52.362;10.012;2023-05-10T03:39:40;18.30;77.70
5520;DHT22;2782;52.362;10.012;2023-05-10T03:40:41;18.40;77.80
5520;DHT22;2782;52.362;10.012;2023-05-10T03:41:42;18.40;77.90
5520;DHT22;2782;52.362;10.012;2023-05-10T03:42:43;18.40;77.80
5520;DHT22;2782;52.362;10.012;2023-05-10T03:43:45;18.40;77.90
5520;DHT22;2782;52.362;10.012;2023-05-10T03:44:45;18.40;78.00
5520;DHT22;2782;52.362;10.012;2023-05-10T03:45:49;18.40;78.00
5520;DHT22;2782;52.362;10.012;2023-05-10T03:46:50;18.40;78.10
5520;DHT22;2782;52.362;10.012;2023-05-10T03:47:51;18.40;78.10
5520;DHT22;2782;52.362;10.012;2023-05-10T03:48:52;18.40;78.10
5520;DHT22;2782;52.362;10.012;2023-05-10T03:49:53;18.40;78.20
5520;DHT22;2782;52.362;10.012;2023-05-10T03:50:54;18.40;78.20
5520;DHT22;2782;52.362;10.012;2023-05-10T03:51:56;18.40;78.10
5520;DHT22;2782;52.362;10.012;2023-05-10T03:52:56;18.40;78.10
5520;DHT22;2782;52.362;10.012;2023-05-10T03:53:59;18.40;78.10
5520;DHT22;2782;52.362;10.012;2023-05-10T03:55:00;18.40;78.10
5520;DHT22;2782;52.362;10.012;2023-05-10T03:56:03;18.30;78.00
5520;DHT22;2782;52.362;10.012;2023-05-10T03:57:04;18.40;78.10
5520;DHT22;2782;52.362;10.012;2023-05-10T03:58:06;18.40;78.20
5520;DHT22;2782;52.362;10.012;2023-05-10T03:59:06;18.30;78.00
5520;DHT22;2782;52.362;10.012;2023-05-10T04:00:09;18.40;78.10
5520;DHT22;2782;52.362;10.012;2023-05-10T04:01:10;18.40;78.10
5520;DHT22;2782;52.362;10.012;2023-05-10T04:02:12;18.40;78.10
5520;DHT22;2782;52.362;10.012;2023-05-10T04:03:13;18.40;78.00
5520;DHT22;2782;52.362;10.012;2023-05-10T04:04:15;18.40;78.00
5520;DHT22;2782;52.362;10.012;2023-05-10T04:05:15;18.40;78.00
5520;DHT22;2782;52.362;10.012;2023-05-10T04:06:17;18.40;77.90
5520;DHT22;2782;52.362;10.012;2023-05-10T04:07:18;18.30;77.80
5520;DHT22;2782;52.362;10.012;2023-05-10T04:08:19;18.40;77.90
5520;DHT22;2782;52.362;10.012;2023-05-10T04:09:21;18.40;77.80
5520;DHT22;2782;52.362;10.012;2023-05-10T04:10:23;18.40;77.90
5520;DHT22;2782;52.362;10.012;2023-05-10T04:11:23;18.40;77.80
5520;DHT22;2782;52.362;10.012;2023-05-10T04:12:25;18.40;77.80
5520;DHT22;2782;52.362;10.012;2023-05-10T04:13:27;18.40;77.90
5520;DHT22;2782;52.362;10.012;2023-05-10T04:14:28;18.40;77.80
5520;DHT22;2782;52.362;10.012;2023-05-10T04:15:29;18.40;77.80
5520;DHT22;2782;52.362;10.012;2023-05-10T04:16:31;18.30;77.70
5520;DHT22;2782;52.362;10.012;2023-05-10T04:17:31;18.40;77.80
5520;DHT22;2782;52.362;10.012;2023-05-10T04:18:33;18.30;77.70
5520;DHT22;2782;52.362;10.012;2023-05-10T04:19:33;18.30;77.60
5520;DHT22;2782;52.362;10.012;2023-05-10T04:20:35;18.40;77.70
5520;DHT22;2782;52.362;10.012;2023-05-10T04:21:36;18.40;77.80
5520;DHT22;2782;52.362;10.012;2023-05-10T04:22:38;18.30;77.60
5520;DHT22;2782;52.362;10.012;2023-05-10T04:23:40;18.40;77.80
5520;DHT22;2782;52.362;10.012;2023-05-10T04:24:42;18.30;77.70
5520;DHT22;2782;52.362;10.012;2023-05-10T04:25:43;18.30;77.70
5520;DHT22;2782;52.362;10.012;2023-05-10T04:26:44;18.40;77.70
5520;DHT22;2782;52.362;10.012;2023-05-10T04:27:45;18.30;77.60
5520;DHT22;2782;52.362;10.012;2023-05-10T04:28:46;18.30;77.60
5520;DHT22;2782;52.362;10.012;2023-05-10T04:29:48;18.30;77.70
5520;DHT22;2782;52.362;10.012;2023-05-10T04:30:49;18.40;77.80
5520;DHT22;2782;52.362;10.012;2023-05-10T04:31:50;18.40;77.80
5520;DHT22;2782;52.362;10.012;2023-05-10T04:32:51;18.30;77.60
5520;DHT22;2782;52.362;10.012;2023-05-10T04:33:52;18.30;77.60
5520;DHT22;2782;52.362;10.012;2023-05-10T04:34:53;18.30;77.60
5520;DHT22;2782;52.362;10.012;2023-05-10T04:35:55;18.30;77.60
5520;DHT22;2782;52.362;10.012;2023-05-10T04:36:55;18.30;77.60
5520;DHT22;2782;52.362;10.012;2023-05-10T04:37:57;18.30;77.60
5520;DHT22;2782;52.362;10.012;2023-05-10T04:38:58;18.40;77.80
5520;DHT22;2782;52.362;10.012;2023-05-10T04:40:01;18.30;77.80
5520;DHT22;2782;52.362;10.012;2023-05-10T04:41:05;18.40;78.00
5520;DHT22;2782;52.362;10.012;2023-05-10T04:42:06;18.40;77.90
5520;DHT22;2782;52.362;10.012;2023-05-10T04:43:07;18.30;77.80
5520;DHT22;2782;52.362;10.012;2023-05-10T04:44:09;18.30;77.90
5520;DHT22;2782;52.362;10.012;2023-05-10T04:45:10;18.30;77.90
5520;DHT22;2782;52.362;10.012;2023-05-10T04:46:11;18.30;77.90
5520;DHT22;2782;52.362;10.012;2023-05-10T04:47:12;18.30;77.90
5520;DHT22;2782;52.362;10.012;2023-05-10T04:48:13;18.40;78.00
5520;DHT22;2782;52.362;10.012;2023-05-10T04:49:14;18.30;77.90
5520;DHT22;2782;52.362;10.012;2023-05-10T04:50:17;18.30;78.00
5520;DHT22;2782;52.362;10.012;2023-05-10T04:51:17;18.30;78.00
5520;DHT22;2782;52.362;10.012;2023-05-10T04:52:19;18.30;78.00
5520;DHT22;2782;52.362;10.012;2023-05-10T04:53:20;18.30;78.00
5520;DHT22;2782;52.362;10.012;2023-05-10T04:54:21;18.30;78.00
5520;DHT22;2782;52.362;10.012;2023-05-10T04:55:24;18.30;77.90
5520;DHT22;2782;52.362;10.012;2023-05-10T04:56:25;18.30;78.00
5520;DHT22;2782;52.362;10.012;2023-05-10T04:57:26;18.30;78.00
5520;DHT22;2782;52.362;10.012;2023-05-10T04:58:28;18.30;78.00
5520;DHT22;2782;52.362;10.012;2023-05-10T04:59:30;18.30;78.00
5520;DHT22;2782;52.362;10.012;2023-05-10T05:00:31;18.30;78.00
5520;DHT22;2782;52.362;10.012;2023-05-10T05:01:32;18.30;78.00
5520;DHT22;2782;52.362;10.012;2023-05-10T05:02:34;18.30;78.00
5520;DHT22;2782;52.362;10.012;2023-05-10T05:03:36;18.30;78.00
5520;DHT22;2782;52.362;10.012;2023-05-10T05:04:37;18.30;77.90
5520;DHT22;2782;52.362;10.012;2023-05-10T05:05:39;18.30;77.90
5520;DHT22;2782;52.362;10.012;2023-05-10T05:06:39;18.30;77.90
5520;DHT22;2782;52.362;10.012;2023-05-10T05:07:41;18.30;77.90
5520;DHT22;2782;52.362;10.012;2023-05-10T05:08:41;18.30;77.80
5520;DHT22;2782;52.362;10.012;2023-05-10T05:09:43;18.30;77.70
5520;DHT22;2782;52.362;10.012;2023-05-10T05:10:45;18.30;77.50
5520;DHT22;2782;52.362;10.012;2023-05-10T05:11:47;18.40;77.60
5520;DHT22;2782;52.362;10.012;2023-05-10T05:12:48;18.30;77.60
5520;DHT22;2782;52.362;10.012;2023-05-10T05:13:50;18.30;77.50
5520;DHT22;2782;52.362;10.012;2023-05-10T05:14:50;18.40;77.80
5520;DHT22;2782;52.362;10.012;2023-05-10T05:15:52;18.30;77.70
5520;DHT22;2782;52.362;10.012;2023-05-10T05:16:53;18.40;78.00
5520;DHT22;2782;52.362;10.012;2023-05-10T05:17:56;18.40;78.00
5520;DHT22;2782;52.362;10.012;2023-05-10T05:18:56;18.40;78.50
5520;DHT22;2782;52.362;10.012;2023-05-10T05:19:58;18.40;78.80
5520;DHT22;2782;52.362;10.012;2023-05-10T05:20:59;18.40;78.80
5520;DHT22;2782;52.362;10.012;2023-05-10T05:22:01;18.40;79.00
5520;DHT22;2782;52.362;10.012;2023-05-10T05:23:01;18.40;79.10
5520;DHT22;2782;52.362;10.012;2023-05-10T05:24:04;18.40;79.30
5520;DHT22;2782;52.362;10.012;2023-05-10T05:25:05;18.40;79.40
5520;DHT22;2782;52.362;10.012;2023-05-10T05:26:08;18.40;79.60
5520;DHT22;2782;52.362;10.012;2023-05-10T05:27:09;18.40;79.90
5520;DHT22;2782;52.362;10.012;2023-05-10T05:28:10;18.40;80.00
5520;DHT22;2782;52.362;10.012;2023-05-10T05:29:11;18.40;80.20
5520;DHT22;2782;52.362;10.012;2023-05-10T05:30:13;18.40;80.60
5520;DHT22;2782;52.362;10.012;2023-05-10T05:31:13;18.40;80.70
5520;DHT22;2782;52.362;10.012;2023-05-10T05:32:15;18.40;80.80
5520;DHT22;2782;52.362;10.012;2023-05-10T05:33:15;18.40;80.80
5520;DHT22;2782;52.362;10.012;2023-05-10T05:34:17;18.40;80.70
5520;DHT22;2782;52.362;10.012;2023-05-10T05:35:18;18.40;81.20
5520;DHT22;2782;52.362;10.012;2023-05-10T05:36:19;18.40;81.50
5520;DHT22;2782;52.362;10.012;2023-05-10T05:37:20;18.50;81.90
5520;DHT22;2782;52.362;10.012;2023-05-10T05:38:22;18.50;82.30
5520;DHT22;2782;52.362;10.012;2023-05-10T05:39:24;18.50;82.50
5520;DHT22;2782;52.362;10.012;2023-05-10T05:40:25;18.50;83.00
5520;DHT22;2782;52.362;10.012;2023-05-10T05:41:28;18.50;84.60
5520;DHT22;2782;52.362;10.012;2023-05-10T05:42:29;18.50;83.80
5520;DHT22;2782;52.362;10.012;2023-05-10T05:43:32;18.50;84.60
5520;DHT22;2782;52.362;10.012;2023-05-10T05:44:33;18.50;84.80
5520;DHT22;2782;52.362;10.012;2023-05-10T05:45:34;18.50;84.70
5520;DHT22;2782;52.362;10.012;2023-05-10T05:46:35;18.50;85.50
5520;DHT22;2782;52.362;10.012;2023-05-10T05:47:36;18.50;85.80
5520;DHT22;2782;52.362;10.012;2023-05-10T05:48:38;18.50;86.00
5520;DHT22;2782;52.362;10.012;2023-05-10T05:49:38;18.50;86.00
5520;DHT22;2782;52.362;10.012;2023-05-10T05:50:40;18.60;85.70
5520;DHT22;2782;52.362;10.012;2023-05-10T05:51:41;18.60;86.10
5520;DHT22;2782;52.362;10.012;2023-05-10T05:52:42;18.50;86.10
5520;DHT22;2782;52.362;10.012;2023-05-10T05:53:43;18.60;86.60
5520;DHT22;2782;52.362;10.012;2023-05-10T05:54:44;18.60;86.90
5520;DHT22;2782;52.362;10.012;2023-05-10T05:55:51;18.60;87.40
5520;DHT22;2782;52.362;10.012;2023-05-10T05:56:55;18.60;87.70
5520;DHT22;2782;52.362;10.012;2023-05-10T05:57:56;18.60;87.40
5520;DHT22;2782;52.362;10.012;2023-05-10T05:58:58;18.60;87.80
5520;DHT22;2782;52.362;10.012;2023-05-10T05:59:58;18.60;88.50
5520;DHT22;2782;52.362;10.012;2023-05-10T06:01:00;18.60;88.50
5520;DHT22;2782;52.362;10.012;2023-05-10T06:02:01;18.60;88.30
5520;DHT22;2782;52.362;10.012;2023-05-10T06:03:02;18.60;88.70
5520;DHT22;2782;52.362;10.012;2023-05-10T06:04:04;18.60;88.50
5520;DHT22;2782;52.362;10.012;2023-05-10T06:05:06;18.60;88.60
5520;DHT22;2782;52.362;10.012;2023-05-10T06:06:08;18.60;88.80
5520;DHT22;2782;52.362;10.012;2023-05-10T06:07:09;18.60;88.90
5520;DHT22;2782;52.362;10.012;2023-05-10T06:08:11;18.60;88.70
5520;DHT22;2782;52.362;10.012;2023-05-10T06:09:12;18.60;89.20
5520;DHT22;2782;52.362;10.012;2023-05-10T06:10:14;18.60;89.40
5520;DHT22;2782;52.362;10.012;2023-05-10T06:11:14;18.60;89.10
5520;DHT22;2782;52.362;10.012;2023-05-10T06:12:17;18.60;89.60
5520;DHT22;2782;52.362;10.012;2023-05-10T06:13:18;18.60;89.40
5520;DHT22;2782;52.362;10.012;2023-05-10T06:14:20;18.70;90.20
5520;DHT22;2782;52.362;10.012;2023-05-10T06:15:21;18.60;90.10
5520;DHT22;2782;52.362;10.012;2023-05-10T06:16:22;18.70;90.10
5520;DHT22;2782;52.362;10.012;2023-05-10T06:17:23;18.70;90.10
5520;DHT22;2782;52.362;10.012;2023-05-10T06:18:25;18.70;90.10
5520;DHT22;2782;52.362;10.012;2023-05-10T06:19:26;18.70;88.70
5520;DHT22;2782;52.362;10.012;2023-05-10T06:20:28;18.70;89.40
5520;DHT22;2782;52.362;10.012;2023-05-10T06:21:28;18.70;88.90
5520;DHT22;2782;52.362;10.012;2023-05-10T06:22:30;18.70;88.90
5520;DHT22;2782;52.362;10.012;2023-05-10T06:23:31;18.70;88.60
5520;DHT22;2782;52.362;10.012;2023-05-10T06:24:32;18.70;88.70
5520;DHT22;2782;52.362;10.012;2023-05-10T06:25:33;18.70;88.30
5520;DHT22;2782;52.362;10.012;2023-05-10T06:26:35;18.70;88.80
5520;DHT22;2782;52.362;10.012;2023-05-10T06:27:37;18.70;88.40
5520;DHT22;2782;52.362;10.012;2023-05-10T06:28:38;18.70;88.40
5520;DHT22;2782;52.362;10.012;2023-05-10T06:29:39;18.70;88.60
5520;DHT22;2782;52.362;10.012;2023-05-10T06:30:41;18.70;88.50
5520;DHT22;2782;52.362;10.012;2023-05-10T06:31:43;18.70;88.20
5520;DHT22;2782;52.362;10.012;2023-05-10T06:32:44;18.70;87.90
5520;DHT22;2782;52.362;10.012;2023-05-10T06:33:45;18.70;88.00
5520;DHT22;2782;52.362;10.012;2023-05-10T06:34:47;18.70;87.80
5520;DHT22;2782;52.362;10.012;2023-05-10T06:35:47;18.70;88.00
5520;DHT22;2782;52.362;10.012;2023-05-10T06:36:49;18.70;88.40
5520;DHT22;2782;52.362;10.012;2023-05-10T06:37:50;18.70;88.10
5520;DHT22;2782;52.362;10.012;2023-05-10T06:38:52;18.70;88.40
5520;DHT22;2782;52.362;10.012;2023-05-10T06:39:52;18.70;88.00
5520;DHT22;2782;52.362;10.012;2023-05-10T06:40:54;18.70;88.10
5520;DHT22;2782;52.362;10.012;2023-05-10T06:41:56;18.70;88.10
5520;DHT22;2782;52.362;10.012;2023-05-10T06:42:57;18.70;88.10
5520;DHT22;2782;52.362;10.012;2023-05-10T06:44:00;18.70;88.00
5520;DHT22;2782;52.362;10.012;2023-05-10T06:45:02;18.70;88.30
5520;DHT22;2782;52.362;10.012;2023-05-10T06:46:04;18.70;88.60
5520;DHT22;2782;52.362;10.012;2023-05-10T06:47:04;18.70;88.00
5520;DHT22;2782;52.362;10.012;2023-05-10T06:48:06;18.70;88.50
5520;DHT22;2782;52.362;10.012;2023-05-10T06:49:07;18.70;88.20